createdAt,value
2022-11-04T00:01:17.476Z,19.90
2022-11-04T00:03:44.239Z,20.00
2022-11-04T00:06:11.148Z,20.00
2022-11-04T00:08:37.894Z,20.00
2022-11-04T00:11:23.271Z,20.00
2022-11-04T00:13:50.264Z,20.00
2022-11-04T00:16:35.876Z,20.00
2022-11-04T00:19:02.733Z,20.10
2022-11-04T00:21:48.422Z,20.10
2022-11-04T00:24:34.006Z,20.00
2022-11-04T00:27:19.448Z,20.00
2022-11-04T00:29:46.210Z,20.00
2022-11-04T00:32:42.059Z,19.90
2022-11-04T00:35:09.782Z,19.90
2022-11-04T00:37:41.231Z,19.90
2022-11-04T00:40:10.232Z,19.80
2022-11-04T00:42:37.208Z,19.80
2022-11-04T00:45:05.186Z,19.80
2022-11-04T00:47:32.122Z,19.80
2022-11-04T00:49:58.993Z,19.70
2022-11-04T00:52:25.752Z,19.70
2022-11-04T00:54:52.566Z,19.70
2022-11-04T00:57:19.374Z,19.70
2022-11-04T00:59:46.120Z,19.60
2022-11-04T01:02:13.925Z,19.60
2022-11-04T01:04:40.819Z,19.60
2022-11-04T01:07:07.850Z,19.60
2022-11-04T01:09:34.641Z,19.60
2022-11-04T01:12:01.418Z,19.60
2022-11-04T01:14:28.207Z,19.60
2022-11-04T01:16:55.043Z,19.60
2022-11-04T01:19:21.985Z,19.60
2022-11-04T01:21:52.841Z,19.60
2022-11-04T01:24:19.887Z,19.60
2022-11-04T01:26:46.678Z,19.60
2022-11-04T01:29:13.445Z,19.60
2022-11-04T01:31:40.478Z,19.60
2022-11-04T01:34:08.100Z,19.60
2022-11-04T01:36:34.915Z,19.60
2022-11-04T01:39:01.701Z,19.60
2022-11-04T01:41:31.367Z,19.60
2022-11-04T01:44:24.141Z,19.60
2022-11-04T01:46:53.996Z,19.60
2022-11-04T01:49:29.334Z,19.60
2022-11-04T01:52:05.463Z,19.60
2022-11-04T01:54:33.919Z,19.50
2022-11-04T01:57:02.526Z,19.60
2022-11-04T01:59:36.043Z,19.60
2022-11-04T02:02:03.690Z,19.60
2022-11-04T02:04:31.736Z,19.60
2022-11-04T02:07:02.299Z,19.60
2022-11-04T02:09:31.397Z,19.60
2022-11-04T02:12:17.014Z,19.60
2022-11-04T02:14:46.511Z,19.60
2022-11-04T02:17:13.212Z,19.60
2022-11-04T02:20:14.739Z,19.60
2022-11-04T02:23:12.851Z,19.60
2022-11-04T02:25:52.294Z,19.60
2022-11-04T02:28:22.150Z,19.60
2022-11-04T02:31:15.413Z,19.60
2022-11-04T02:34:21.280Z,19.50
2022-11-04T02:37:12.829Z,19.50
2022-11-04T02:39:51.527Z,19.50
2022-11-04T02:42:56.344Z,19.50
2022-11-04T02:45:50.511Z,19.50
2022-11-04T02:48:23.015Z,19.50
2022-11-04T02:51:10.028Z,19.50
2022-11-04T02:53:45.508Z,19.50
2022-11-04T02:56:14.987Z,19.50
2022-11-04T02:59:15.429Z,19.60
2022-11-04T03:01:44.942Z,19.60
2022-11-04T03:04:15.494Z,19.60
2022-11-04T03:06:45.428Z,19.60
2022-11-04T03:09:15.213Z,19.60
2022-11-04T03:11:46.923Z,19.60
2022-11-04T03:14:21.094Z,19.60
2022-11-04T03:16:52.047Z,19.60
2022-11-04T03:19:36.306Z,19.60
2022-11-04T03:22:20.882Z,19.60
2022-11-04T03:24:49.278Z,19.60
2022-11-04T03:27:40.881Z,19.60
2022-11-04T03:33:17.835Z,19.70
2022-11-04T03:35:44.751Z,19.70
2022-11-04T03:38:11.549Z,19.80
2022-11-04T03:40:38.573Z,19.80
2022-11-04T03:43:19.641Z,19.80
2022-11-04T03:45:46.493Z,19.80
2022-11-04T03:48:13.471Z,19.80
2022-11-04T03:50:45.721Z,19.80
2022-11-04T03:53:14.398Z,19.80
2022-11-04T03:56:06.304Z,19.80
2022-11-04T03:59:11.560Z,19.80
2022-11-04T04:01:49.527Z,19.80
2022-11-04T04:04:19.120Z,19.80
2022-11-04T04:06:46.530Z,19.80
2022-11-04T04:09:24.203Z,19.80
2022-11-04T04:12:10.456Z,19.80
2022-11-04T04:14:49.601Z,19.80
2022-11-04T04:17:39.274Z,19.80
2022-11-04T04:20:12.758Z,19.80
2022-11-04T04:23:03.728Z,19.80
2022-11-04T04:25:51.545Z,19.80
2022-11-04T04:28:19.571Z,19.80
2022-11-04T04:30:46.743Z,19.80
2022-11-04T04:33:18.689Z,19.80
2022-11-04T04:35:56.815Z,19.80
2022-11-04T04:38:47.496Z,19.80
2022-11-04T04:41:38.145Z,19.80
2022-11-04T04:44:44.895Z,19.80
2022-11-04T04:47:20.005Z,19.80
2022-11-04T04:49:54.865Z,19.80
2022-11-04T04:52:23.410Z,19.80
2022-11-04T04:54:50.184Z,19.70
2022-11-04T04:57:17.292Z,19.70
2022-11-04T04:59:44.094Z,19.70
2022-11-04T05:02:11.099Z,19.70
2022-11-04T05:04:38.102Z,19.60
2022-11-04T05:07:06.833Z,19.60
2022-11-04T05:09:33.750Z,19.60
2022-11-04T05:12:00.534Z,19.60
2022-11-04T05:14:27.451Z,19.60
2022-11-04T05:16:54.223Z,19.50
2022-11-04T05:19:21.004Z,19.50
2022-11-04T05:21:47.826Z,19.50
2022-11-04T05:24:14.709Z,19.50
2022-11-04T05:26:41.556Z,19.50
2022-11-04T05:29:09.813Z,19.50
2022-11-04T05:31:36.619Z,19.50
2022-11-04T05:34:04.481Z,19.50
2022-11-04T05:36:33.131Z,19.40
2022-11-04T05:38:59.904Z,19.50
2022-11-04T05:41:27.268Z,19.50
2022-11-04T05:43:59.507Z,19.40
2022-11-04T05:46:26.929Z,19.50
2022-11-04T05:48:54.586Z,19.50
2022-11-04T05:51:24.256Z,19.50
2022-11-04T05:53:51.346Z,19.60
2022-11-04T05:56:18.929Z,19.60
2022-11-04T05:58:45.662Z,19.60
2022-11-04T06:01:29.108Z,19.60
2022-11-04T06:03:57.301Z,19.60
2022-11-04T06:06:25.547Z,19.70
2022-11-04T06:08:52.733Z,19.70
2022-11-04T06:11:20.627Z,19.60
2022-11-04T06:13:47.540Z,19.70
2022-11-04T06:16:14.530Z,19.60
2022-11-04T06:18:41.344Z,19.70
2022-11-04T06:21:15.187Z,19.70
2022-11-04T06:23:42.519Z,19.70
2022-11-04T06:26:10.056Z,19.70
2022-11-04T06:28:37.015Z,19.80
2022-11-04T06:31:06.021Z,19.80
2022-11-04T06:33:36.698Z,19.80
2022-11-04T06:36:06.622Z,19.80
2022-11-04T06:38:34.866Z,19.80
2022-11-04T06:41:01.724Z,19.80
2022-11-04T06:43:28.547Z,19.80
2022-11-04T06:45:59.996Z,19.80
2022-11-04T06:48:27.743Z,19.90
2022-11-04T06:50:54.536Z,19.90
2022-11-04T06:53:21.300Z,19.90
2022-11-04T06:55:48.118Z,19.90
2022-11-04T06:58:14.992Z,20.00
2022-11-04T07:00:41.732Z,20.00
2022-11-04T07:03:10.358Z,20.00
2022-11-04T07:05:37.530Z,20.00
2022-11-04T07:08:04.391Z,19.90
2022-11-04T07:10:31.119Z,19.90
2022-11-04T07:12:57.942Z,19.90
2022-11-04T07:15:27.460Z,19.90
2022-11-04T07:17:54.458Z,19.90
2022-11-04T07:20:21.212Z,19.90
2022-11-04T07:22:47.963Z,19.90
2022-11-04T07:25:14.795Z,19.90
2022-11-04T07:27:41.602Z,19.90
2022-11-04T07:30:08.956Z,19.90
2022-11-04T07:32:35.726Z,19.90
2022-11-04T07:35:02.498Z,20.00
2022-11-04T07:37:29.229Z,20.00
2022-11-04T07:39:55.987Z,20.10
2022-11-04T07:42:22.811Z,20.20
2022-11-04T07:44:49.592Z,20.30
2022-11-04T07:47:16.420Z,20.30
2022-11-04T07:49:43.232Z,20.40
2022-11-04T07:52:10.005Z,20.40
2022-11-04T07:54:36.789Z,20.50
2022-11-04T07:57:03.729Z,20.60
2022-11-04T07:59:30.524Z,20.70
2022-11-04T08:01:57.497Z,20.90
2022-11-04T08:04:24.431Z,21.10
2022-11-04T08:06:51.178Z,21.20
2022-11-04T08:09:17.928Z,21.30
2022-11-04T08:11:44.889Z,21.40
2022-11-04T08:14:12.314Z,21.40
2022-11-04T08:16:39.091Z,21.40
2022-11-04T08:19:06.027Z,21.40
2022-11-04T08:21:33.671Z,21.40
2022-11-04T08:24:03.271Z,21.40
2022-11-04T08:26:30.132Z,21.40
2022-11-04T08:28:57.132Z,21.30
2022-11-04T08:31:26.797Z,21.30
2022-11-04T08:33:54.677Z,21.30
2022-11-04T08:36:27.624Z,21.30
2022-11-04T08:38:54.568Z,21.40
2022-11-04T08:41:25.562Z,21.60
2022-11-04T08:43:52.996Z,21.90
2022-11-04T08:46:20.247Z,22.10
2022-11-04T08:48:47.396Z,22.30
2022-11-04T08:51:17.995Z,22.50
2022-11-04T08:53:44.871Z,22.50
2022-11-04T08:56:19.979Z,22.60
2022-11-04T08:58:47.204Z,22.60
2022-11-04T09:01:14.773Z,22.60
2022-11-04T09:03:42.588Z,22.60
2022-11-04T09:06:13.843Z,22.50
2022-11-04T09:08:41.320Z,22.40
2022-11-04T09:11:10.044Z,22.30
2022-11-04T09:13:39.771Z,22.20
2022-11-04T09:16:09.062Z,22.20
2022-11-04T09:18:35.922Z,22.10
2022-11-04T09:21:04.940Z,22.00
2022-11-04T09:23:32.062Z,21.90
2022-11-04T09:26:03.835Z,21.90
2022-11-04T09:28:30.618Z,21.80
2022-11-04T09:30:57.533Z,21.70
2022-11-04T09:33:24.464Z,21.60
2022-11-04T09:35:57.870Z,21.60
2022-11-04T09:38:25.524Z,21.50
2022-11-04T09:40:53.001Z,21.40
2022-11-04T09:43:46.360Z,21.40
2022-11-04T09:46:14.814Z,21.40
2022-11-04T09:48:49.210Z,21.40
2022-11-04T09:51:39.959Z,21.40
2022-11-04T09:54:23.531Z,21.40
2022-11-04T09:56:53.002Z,21.30
2022-11-04T09:59:34.720Z,21.30
2022-11-04T10:02:19.108Z,21.20
2022-11-04T10:05:07.522Z,21.20
2022-11-04T10:08:09.596Z,21.20
2022-11-04T10:10:46.073Z,21.20
2022-11-04T10:13:17.841Z,21.20
2022-11-04T10:16:08.775Z,21.30
2022-11-04T10:18:41.695Z,21.30
2022-11-04T10:21:26.752Z,21.40
2022-11-04T10:24:02.490Z,21.50
2022-11-04T10:26:34.435Z,21.60
2022-11-04T10:29:23.910Z,21.70
2022-11-04T10:31:54.455Z,21.80
2022-11-04T10:34:28.679Z,21.80
2022-11-04T10:36:56.902Z,21.90
2022-11-04T10:39:29.786Z,21.90
2022-11-04T10:41:58.307Z,21.90
2022-11-04T10:44:30.483Z,21.90
2022-11-04T10:47:00.445Z,21.90
2022-11-04T10:52:48.126Z,21.90
2022-11-04T10:55:41.035Z,21.90
2022-11-04T10:58:23.145Z,21.80
2022-11-04T11:00:50.531Z,21.80
2022-11-04T11:03:33.130Z,21.80
2022-11-04T11:06:19.587Z,21.80
2022-11-04T11:08:47.077Z,21.80
2022-11-04T11:11:16.087Z,21.80
2022-11-04T11:13:45.387Z,21.80
2022-11-04T11:16:27.166Z,21.80
2022-11-04T11:19:17.565Z,21.80
2022-11-04T11:21:46.121Z,21.80
2022-11-04T11:24:20.786Z,21.80
2022-11-04T11:26:49.907Z,21.80
2022-11-04T11:29:29.401Z,21.80
2022-11-04T11:31:58.905Z,21.80
2022-11-04T11:34:33.095Z,21.80
2022-11-04T11:37:03.951Z,21.80
2022-11-04T11:39:32.884Z,21.80
2022-11-04T11:42:06.284Z,21.90
2022-11-04T11:44:47.545Z,21.90
2022-11-04T11:47:38.605Z,21.90
2022-11-04T11:50:11.392Z,22.00
2022-11-04T11:52:40.870Z,22.10
2022-11-04T11:55:19.563Z,22.10
2022-11-04T12:01:06.661Z,22.10
2022-11-04T12:10:00.125Z,22.10
2022-11-04T12:12:39.634Z,22.10
2022-11-04T12:15:29.840Z,22.00
2022-11-04T12:18:22.888Z,22.00
2022-11-04T12:21:04.758Z,22.00
2022-11-04T12:23:45.333Z,22.00
2022-11-04T12:26:24.736Z,22.00
2022-11-04T12:29:00.098Z,22.00
2022-11-04T12:31:48.332Z,22.00
2022-11-04T12:34:29.176Z,22.00
2022-11-04T12:37:01.772Z,22.00
2022-11-04T12:39:29.301Z,22.00
2022-11-04T12:42:23.795Z,22.00
2022-11-04T12:45:28.612Z,22.00
2022-11-04T12:48:02.035Z,22.00
2022-11-04T12:50:47.762Z,22.10
2022-11-04T12:53:51.197Z,22.20
2022-11-04T12:56:20.613Z,22.20
2022-11-04T12:59:27.017Z,22.30
2022-11-04T13:02:04.378Z,22.30
2022-11-04T13:04:45.187Z,22.40
2022-11-04T13:07:20.411Z,22.60
2022-11-04T13:10:03.575Z,22.60
2022-11-04T13:12:36.401Z,22.70
2022-11-04T13:15:13.419Z,22.80
2022-11-04T13:17:41.594Z,22.90
2022-11-04T13:20:13.943Z,23.00
2022-11-04T13:22:45.656Z,23.10
2022-11-04T13:25:15.620Z,23.20
2022-11-04T13:27:47.367Z,23.20
2022-11-04T13:30:22.835Z,23.10
2022-11-04T13:33:08.929Z,23.00
2022-11-04T13:35:59.560Z,22.90
2022-11-04T13:38:31.089Z,22.70
2022-11-04T13:41:32.779Z,22.60
2022-11-04T13:44:13.092Z,22.50
2022-11-04T13:46:40.061Z,22.40
2022-11-04T13:49:19.998Z,22.30
2022-11-04T13:52:00.284Z,22.20
2022-11-04T13:54:38.129Z,22.10
2022-11-04T13:57:15.169Z,22.00
2022-11-04T13:59:44.329Z,22.00
2022-11-04T14:02:11.583Z,21.90
2022-11-04T14:04:43.194Z,21.90
2022-11-04T14:07:12.631Z,21.80
2022-11-04T14:09:42.794Z,21.70
2022-11-04T14:12:17.207Z,21.70
2022-11-04T14:14:45.228Z,21.60
2022-11-04T14:17:33.905Z,21.50
2022-11-04T14:20:30.101Z,21.40
2022-11-04T14:23:00.045Z,21.40
2022-11-04T14:25:31.484Z,21.40
2022-11-04T14:28:10.692Z,21.40
2022-11-04T14:30:43.911Z,21.30
2022-11-04T14:33:35.168Z,21.40
2022-11-04T14:36:13.851Z,21.30
2022-11-04T14:38:41.703Z,21.30
2022-11-04T14:41:13.245Z,21.30
2022-11-04T14:43:44.429Z,21.30
2022-11-04T14:46:17.705Z,21.30
2022-11-04T14:48:52.102Z,21.30
2022-11-04T14:51:27.747Z,21.30
2022-11-04T14:54:05.510Z,21.30
2022-11-04T14:56:32.687Z,21.30
2022-11-04T14:59:07.321Z,21.30
2022-11-04T15:01:39.883Z,21.30
2022-11-04T15:04:14.752Z,21.20
2022-11-04T15:06:54.705Z,21.20
2022-11-04T15:09:35.102Z,21.20
2022-11-04T15:12:31.333Z,21.10
2022-11-04T15:14:59.863Z,21.10
2022-11-04T15:17:31.576Z,21.10
2022-11-04T15:20:01.928Z,21.10
2022-11-04T15:22:30.535Z,21.10
2022-11-04T15:25:01.325Z,21.00
2022-11-04T15:27:29.875Z,21.00
2022-11-04T15:30:02.972Z,21.00
2022-11-04T15:32:30.666Z,21.00
2022-11-04T15:34:58.077Z,20.90
2022-11-04T15:37:26.168Z,20.90
2022-11-04T15:39:56.495Z,20.90
2022-11-04T15:42:45.491Z,20.80
2022-11-04T15:45:30.291Z,20.80
2022-11-04T15:48:24.324Z,20.70
2022-11-04T15:51:03.985Z,20.70
2022-11-04T15:53:34.275Z,20.60
2022-11-04T15:56:01.445Z,20.60
2022-11-04T15:58:28.859Z,20.60
2022-11-04T16:00:56.650Z,20.60
2022-11-04T16:03:24.515Z,20.60
2022-11-04T16:06:04.005Z,20.60
2022-11-04T16:08:32.071Z,20.50
2022-11-04T16:11:13.248Z,20.50
2022-11-04T16:13:40.611Z,20.50
2022-11-04T16:16:21.732Z,20.50
2022-11-04T16:18:52.903Z,20.50
2022-11-04T16:21:31.141Z,20.50
2022-11-04T16:24:20.318Z,20.40
2022-11-04T16:26:48.061Z,20.30
2022-11-04T16:29:27.728Z,20.40
2022-11-04T16:32:24.882Z,20.30
2022-11-04T16:34:57.019Z,20.30
2022-11-04T16:37:25.679Z,20.30
2022-11-04T16:39:52.599Z,20.30
2022-11-04T16:42:20.142Z,20.30
2022-11-04T16:44:49.621Z,20.20
2022-11-04T16:47:18.612Z,20.20
2022-11-04T16:49:45.733Z,20.20
2022-11-04T16:52:18.423Z,20.10
2022-11-04T16:54:47.585Z,20.00
2022-11-04T16:57:15.522Z,20.00
2022-11-04T16:59:42.481Z,19.90
2022-11-04T17:02:21.325Z,19.90
2022-11-04T17:04:48.286Z,19.90
2022-11-04T17:07:15.233Z,19.80
2022-11-04T17:09:42.087Z,19.80
2022-11-04T17:12:09.819Z,19.80
2022-11-04T17:14:36.698Z,19.80
2022-11-04T17:17:04.253Z,19.80
2022-11-04T17:19:34.628Z,19.80
2022-11-04T17:22:04.284Z,19.90
2022-11-04T17:24:31.086Z,19.80
2022-11-04T17:26:57.893Z,19.80
2022-11-04T17:29:24.808Z,19.80
2022-11-04T17:31:53.736Z,19.90
2022-11-04T17:34:23.799Z,19.80
2022-11-04T17:36:50.576Z,19.80
2022-11-04T17:39:17.379Z,19.80
2022-11-04T17:42:02.699Z,19.80
2022-11-04T17:44:29.496Z,19.70
2022-11-04T17:46:57.816Z,19.70
2022-11-04T17:49:25.662Z,19.80
2022-11-04T17:51:55.717Z,19.70
2022-11-04T17:54:24.242Z,19.70
2022-11-04T17:56:51.503Z,19.70
2022-11-04T17:59:18.526Z,19.70
2022-11-04T18:01:46.081Z,19.70
2022-11-04T18:04:17.615Z,19.70
2022-11-04T18:06:44.865Z,19.70
2022-11-04T18:09:12.582Z,19.70
2022-11-04T18:11:58.064Z,19.70
2022-11-04T18:14:24.872Z,19.70
2022-11-04T18:16:51.810Z,19.70
2022-11-04T18:19:21.659Z,19.60
2022-11-04T18:21:49.670Z,19.60
2022-11-04T18:24:16.583Z,19.60
2022-11-04T18:26:45.160Z,19.50
2022-11-04T18:29:11.995Z,19.50
2022-11-04T18:31:48.733Z,19.40
2022-11-04T18:34:19.377Z,19.50
2022-11-04T18:36:48.077Z,19.40
2022-11-04T18:39:17.460Z,19.40
2022-11-04T18:41:45.608Z,19.30
2022-11-04T18:44:18.985Z,19.30
2022-11-04T18:46:46.571Z,19.30
2022-11-04T18:49:14.233Z,19.30
2022-11-04T18:51:41.458Z,19.20
2022-11-04T18:54:10.772Z,19.20
2022-11-04T18:56:38.315Z,19.30
2022-11-04T18:59:08.294Z,19.20
2022-11-04T19:01:35.422Z,19.20
2022-11-04T19:04:02.499Z,19.20
2022-11-04T19:06:32.299Z,19.20
2022-11-04T19:09:13.336Z,19.20
2022-11-04T19:11:48.735Z,19.20
2022-11-04T19:14:19.008Z,19.20
2022-11-04T19:16:45.793Z,19.20
2022-11-04T19:19:17.884Z,19.20
2022-11-04T19:21:45.728Z,19.20
2022-11-04T19:24:12.531Z,19.20
2022-11-04T19:26:40.942Z,19.20
2022-11-04T19:29:08.006Z,19.20
2022-11-04T19:31:35.076Z,19.10
2022-11-04T19:34:07.096Z,19.10
2022-11-04T19:36:35.646Z,19.10
2022-11-04T19:39:02.373Z,19.10
2022-11-04T19:41:47.893Z,19.10
2022-11-04T19:44:16.972Z,19.00
2022-11-04T19:46:44.510Z,19.10
2022-11-04T19:49:12.557Z,19.10
2022-11-04T19:51:40.340Z,19.00
2022-11-04T19:54:07.599Z,19.00
2022-11-04T19:56:36.529Z,19.00
2022-11-04T19:59:06.412Z,19.00
2022-11-04T20:01:35.155Z,19.00
2022-11-04T20:04:04.117Z,19.10
2022-11-04T20:06:33.036Z,19.10
2022-11-04T20:09:07.001Z,19.00
2022-11-04T20:11:34.890Z,19.10
2022-11-04T20:14:07.602Z,19.00
2022-11-04T20:16:39.373Z,19.00
2022-11-04T20:19:06.443Z,19.10
2022-11-04T20:21:35.406Z,19.00
2022-11-04T20:24:05.949Z,19.00
2022-11-04T20:26:34.039Z,19.00
2022-11-04T20:29:00.979Z,19.00
2022-11-04T20:31:30.338Z,19.00
2022-11-04T20:33:57.243Z,19.00
2022-11-04T20:36:26.883Z,18.90
2022-11-04T20:38:57.928Z,18.90
2022-11-04T20:41:24.898Z,18.90
2022-11-04T20:43:52.398Z,18.80
2022-11-04T20:46:22.016Z,18.70
2022-11-04T20:48:50.327Z,18.80
2022-11-04T20:51:20.006Z,18.70
2022-11-04T20:53:47.884Z,18.70
2022-11-04T20:56:17.396Z,18.70
2022-11-04T20:58:45.203Z,18.70
2022-11-04T21:01:18.361Z,18.60
2022-11-04T21:03:45.483Z,18.60
2022-11-04T21:06:12.810Z,18.60
2022-11-04T21:08:39.992Z,18.60
2022-11-04T21:11:08.086Z,18.60
2022-11-04T21:13:34.932Z,18.60
2022-11-04T21:16:02.540Z,18.50
2022-11-04T21:18:29.729Z,18.50
2022-11-04T21:20:57.505Z,18.50
2022-11-04T21:23:24.958Z,18.40
2022-11-04T21:25:56.047Z,18.40
2022-11-04T21:28:23.684Z,18.30
2022-11-04T21:30:52.499Z,18.30
2022-11-04T21:33:19.585Z,18.30
2022-11-04T21:35:50.423Z,18.20
2022-11-04T21:38:18.379Z,18.20
2022-11-04T21:40:45.366Z,18.20
2022-11-04T21:43:13.190Z,18.10
2022-11-04T21:45:39.961Z,18.10
2022-11-04T21:48:07.044Z,18.10
2022-11-04T21:50:33.988Z,18.10
2022-11-04T21:53:01.417Z,18.00
2022-11-04T21:55:28.200Z,18.00
2022-11-04T21:57:54.931Z,17.90
2022-11-04T22:00:21.775Z,17.90
2022-11-04T22:02:51.539Z,17.90
2022-11-04T22:05:18.565Z,17.90
2022-11-04T22:08:03.867Z,17.90
2022-11-04T22:10:30.645Z,17.90
2022-11-04T22:12:57.437Z,17.90
2022-11-04T22:15:42.944Z,17.90
2022-11-04T22:18:09.716Z,17.80
2022-11-04T22:20:37.352Z,17.80
2022-11-04T22:23:04.272Z,17.70
2022-11-04T22:25:31.278Z,17.70
2022-11-04T22:27:58.284Z,17.60
2022-11-04T22:30:25.359Z,17.60
2022-11-04T22:32:52.893Z,17.60
2022-11-04T22:35:19.801Z,17.50
2022-11-04T22:37:46.672Z,17.50
2022-11-04T22:40:13.499Z,17.50
2022-11-04T22:42:40.286Z,17.40
2022-11-04T22:45:09.224Z,17.40
2022-11-04T22:47:39.326Z,17.40
2022-11-04T22:50:06.401Z,17.40
2022-11-04T22:52:33.186Z,17.40
2022-11-04T22:55:00.308Z,17.40
2022-11-04T22:57:27.130Z,17.30
2022-11-04T22:59:53.901Z,17.30
2022-11-04T23:02:20.866Z,17.30
2022-11-04T23:04:47.724Z,17.30
2022-11-04T23:07:14.826Z,17.30
2022-11-04T23:10:00.401Z,17.30
2022-11-04T23:12:45.902Z,17.30
2022-11-04T23:15:31.249Z,17.30
2022-11-04T23:18:16.704Z,17.30
2022-11-04T23:20:43.435Z,17.30
2022-11-04T23:23:28.671Z,17.30
2022-11-04T23:25:55.416Z,17.30
2022-11-04T23:28:40.604Z,17.30
2022-11-04T23:31:07.384Z,17.20
2022-11-04T23:33:52.658Z,17.20
2022-11-04T23:36:37.896Z,17.20
2022-11-04T23:39:04.656Z,17.20
2022-11-04T23:41:49.819Z,17.20
2022-11-04T23:44:36.561Z,17.20
2022-11-04T23:47:38.295Z,17.10
2022-11-04T23:50:28.519Z,17.10
2022-11-04T23:53:13.916Z,17.10
2022-11-04T23:55:59.438Z,17.10
2022-11-04T23:58:45.152Z,17.10
